Hawkeye, New York
Current Conditions -  °F | °C
As of 10:35 AM on Friday 24 Oct 2014 (Local Time) from KPBG Reporting Station
Overcast Overcast  
Wind Chill: 41°   Ceiling: 3200
Heat Index: 47°   Visibility: 10mi
Dew Point: 41°   Wind: 15mph
Humidity: 80%   Direction: 350°N
Pressure: 29.87"   Gusts: NA
Location:  44.4763°N, 73.7818°W
Report Text: KPBG 241435Z AUTO 35013KT 10SM SCT022 OVC032 08/05 A2987 RMK AO2 T00830050
Loading
Personal Weather Stations






























Interactive Weather Map
Tropical Storm Tracking
New forecast layout! Learn more

10-Day Weather Forecast

Advertisements
Track Severe Weather on mobile